Current | Radar | Forecast | Satellite
Updated: 12:15 AM CDT on April 23, 2017
Observed at Gulf Shores, Alabama
Temperature 73°F
Humidity 95%
Dew Point 72°F
Wind SW at 7 mph
Pressure 29.90 in (Falling)
Conditions Overcast
Visibility 10.0 miles
UV 0 out of 16
Clouds Mostly Cloudy (BKN) : 1700 ft
Overcast (OVC) : 2200 ft
Yesterday's Maximum 80°F
Yesterday's Minimum 60°F approx.
Yesterday's Cooling Degree Days 5 approx.
Sunrise6:14 AM CDT
Sunset7:23 PM CDT
Moon Rise4:27 AM CDT
Moon Set4:32 PM CDT
Moon PhaseMoon Phase
Waning Crescent
Raw METARMETAR KJKA 230515Z AUTO 22006KT 10SM BKN017 OVC022 23/22 A2990 RMK AO2 LTG DSNT NW T02300221

Orange Beach, AL

Current Radar

Radar Map
Zoom into radar image
Zoom into animated radar image


Click here for Marine Information
Scientific forecaster discussion (NWS)

Units: English | Metric

Find the Weather for any City, State or Zipcode, or Country:

U.S. State List | Severe Weather | Tropical Storms | Ski Conditions
United States | Canada | Central America | South America | Asia | Europe | Australia | Africa | Islands

Weather Underground

© Copyright 2017
The Weather Company, LLC